sensor_id;sensor_type;location;lat;lon;timestamp;pressure;altitude;pressure_sealevel;temperature
5571;BMP180;2808;51.240;6.794;2023-04-23T00:01:33;100358.00;;;11.90
5571;BMP180;2808;51.240;6.794;2023-04-23T00:04:05;100352.00;;;11.90
5571;BMP180;2808;51.240;6.794;2023-04-23T00:06:34;100355.00;;;11.90
5571;BMP180;2808;51.240;6.794;2023-04-23T00:09:03;100356.00;;;11.90
5571;BMP180;2808;51.240;6.794;2023-04-23T00:11:33;100358.00;;;11.90
5571;BMP180;2808;51.240;6.794;2023-04-23T00:14:02;100353.00;;;11.90
5571;BMP180;2808;51.240;6.794;2023-04-23T00:16:30;100353.00;;;11.90
5571;BMP180;2808;51.240;6.794;2023-04-23T00:18:57;100369.00;;;11.90
5571;BMP180;2808;51.240;6.794;2023-04-23T00:21:25;100357.00;;;11.90
5571;BMP180;2808;51.240;6.794;2023-04-23T00:23:52;100364.00;;;11.80
5571;BMP180;2808;51.240;6.794;2023-04-23T00:26:20;100355.00;;;11.80
5571;BMP180;2808;51.240;6.794;2023-04-23T00:28:47;100353.00;;;11.90
5571;BMP180;2808;51.240;6.794;2023-04-23T00:31:16;100352.00;;;11.80
5571;BMP180;2808;51.240;6.794;2023-04-23T00:33:44;100363.00;;;11.80
5571;BMP180;2808;51.240;6.794;2023-04-23T00:36:11;100350.00;;;11.80
5571;BMP180;2808;51.240;6.794;2023-04-23T00:38:38;100348.00;;;11.80
5571;BMP180;2808;51.240;6.794;2023-04-23T00:41:06;100354.00;;;11.80
5571;BMP180;2808;51.240;6.794;2023-04-23T00:43:34;100358.00;;;11.80
5571;BMP180;2808;51.240;6.794;2023-04-23T00:46:01;100360.00;;;11.80
5571;BMP180;2808;51.240;6.794;2023-04-23T00:48:30;100349.00;;;11.80
5571;BMP180;2808;51.240;6.794;2023-04-23T00:51:01;100348.00;;;11.80
5571;BMP180;2808;51.240;6.794;2023-04-23T00:53:29;100353.00;;;11.80
5571;BMP180;2808;51.240;6.794;2023-04-23T00:55:57;100338.00;;;11.80
5571;BMP180;2808;51.240;6.794;2023-04-23T00:58:25;100347.00;;;11.80
5571;BMP180;2808;51.240;6.794;2023-04-23T01:00:53;100346.00;;;11.80
5571;BMP180;2808;51.240;6.794;2023-04-23T01:03:22;100340.00;;;11.80
5571;BMP180;2808;51.240;6.794;2023-04-23T01:05:52;100346.00;;;11.80
5571;BMP180;2808;51.240;6.794;2023-04-23T01:08:21;100335.00;;;11.70
5571;BMP180;2808;51.240;6.794;2023-04-23T01:10:49;100341.00;;;11.70
5571;BMP180;2808;51.240;6.794;2023-04-23T01:13:17;100339.00;;;11.70
5571;BMP180;2808;51.240;6.794;2023-04-23T01:15:44;100335.00;;;11.70
5571;BMP180;2808;51.240;6.794;2023-04-23T01:18:12;100332.00;;;11.60
5571;BMP180;2808;51.240;6.794;2023-04-23T01:20:40;100326.00;;;11.60
5571;BMP180;2808;51.240;6.794;2023-04-23T01:23:09;100333.00;;;11.60
5571;BMP180;2808;51.240;6.794;2023-04-23T01:25:38;100331.00;;;11.60
5571;BMP180;2808;51.240;6.794;2023-04-23T01:28:05;100322.00;;;11.60
5571;BMP180;2808;51.240;6.794;2023-04-23T01:30:35;100318.00;;;11.50
5571;BMP180;2808;51.240;6.794;2023-04-23T01:33:03;100317.00;;;11.50
5571;BMP180;2808;51.240;6.794;2023-04-23T01:35:31;100331.00;;;11.50
5571;BMP180;2808;51.240;6.794;2023-04-23T01:38:00;100334.00;;;11.50
5571;BMP180;2808;51.240;6.794;2023-04-23T01:40:31;100331.00;;;11.50
5571;BMP180;2808;51.240;6.794;2023-04-23T01:42:58;100325.00;;;11.50
5571;BMP180;2808;51.240;6.794;2023-04-23T01:45:26;100310.00;;;11.40
5571;BMP180;2808;51.240;6.794;2023-04-23T01:47:54;100317.00;;;11.40
5571;BMP180;2808;51.240;6.794;2023-04-23T01:50:21;100312.00;;;11.40
5571;BMP180;2808;51.240;6.794;2023-04-23T01:52:51;100320.00;;;11.40
5571;BMP180;2808;51.240;6.794;2023-04-23T01:55:18;100304.00;;;11.40
5571;BMP180;2808;51.240;6.794;2023-04-23T01:57:47;100302.00;;;11.30
5571;BMP180;2808;51.240;6.794;2023-04-23T02:00:16;100313.00;;;11.20
5571;BMP180;2808;51.240;6.794;2023-04-23T02:02:45;100314.00;;;11.20
5571;BMP180;2808;51.240;6.794;2023-04-23T02:05:14;100323.00;;;11.20
5571;BMP180;2808;51.240;6.794;2023-04-23T02:07:44;100318.00;;;11.10
5571;BMP180;2808;51.240;6.794;2023-04-23T02:10:12;100330.00;;;11.10
5571;BMP180;2808;51.240;6.794;2023-04-23T02:12:39;100319.00;;;11.10
5571;BMP180;2808;51.240;6.794;2023-04-23T02:15:09;100319.00;;;11.10
5571;BMP180;2808;51.240;6.794;2023-04-23T02:17:37;100313.00;;;11.10
5571;BMP180;2808;51.240;6.794;2023-04-23T02:20:06;100311.00;;;11.00
5571;BMP180;2808;51.240;6.794;2023-04-23T02:22:34;100314.00;;;11.00
5571;BMP180;2808;51.240;6.794;2023-04-23T02:25:04;100313.00;;;10.90
5571;BMP180;2808;51.240;6.794;2023-04-23T02:27:32;100314.00;;;10.90
5571;BMP180;2808;51.240;6.794;2023-04-23T02:29:59;100319.00;;;10.80
5571;BMP180;2808;51.240;6.794;2023-04-23T02:32:28;100316.00;;;10.80
5571;BMP180;2808;51.240;6.794;2023-04-23T02:34:56;100312.00;;;10.80
5571;BMP180;2808;51.240;6.794;2023-04-23T02:37:24;100320.00;;;10.70
5571;BMP180;2808;51.240;6.794;2023-04-23T02:39:52;100318.00;;;10.70
5571;BMP180;2808;51.240;6.794;2023-04-23T02:42:19;100312.00;;;10.70
5571;BMP180;2808;51.240;6.794;2023-04-23T02:44:47;100313.00;;;10.70
5571;BMP180;2808;51.240;6.794;2023-04-23T02:47:14;100302.00;;;10.70
5571;BMP180;2808;51.240;6.794;2023-04-23T02:49:43;100298.00;;;10.70
5571;BMP180;2808;51.240;6.794;2023-04-23T02:52:11;100306.00;;;10.80
5571;BMP180;2808;51.240;6.794;2023-04-23T02:54:39;100308.00;;;10.80
5571;BMP180;2808;51.240;6.794;2023-04-23T02:57:07;100307.00;;;10.80
5571;BMP180;2808;51.240;6.794;2023-04-23T02:59:34;100311.00;;;10.90
5571;BMP180;2808;51.240;6.794;2023-04-23T03:02:02;100304.00;;;10.90
5571;BMP180;2808;51.240;6.794;2023-04-23T03:04:29;100310.00;;;10.90
5571;BMP180;2808;51.240;6.794;2023-04-23T03:06:58;100302.00;;;11.00
5571;BMP180;2808;51.240;6.794;2023-04-23T03:09:25;100297.00;;;11.00
5571;BMP180;2808;51.240;6.794;2023-04-23T03:11:53;100292.00;;;11.00
5571;BMP180;2808;51.240;6.794;2023-04-23T03:14:22;100289.00;;;11.00
5571;BMP180;2808;51.240;6.794;2023-04-23T03:16:49;100289.00;;;11.10
5571;BMP180;2808;51.240;6.794;2023-04-23T03:19:17;100291.00;;;11.10
5571;BMP180;2808;51.240;6.794;2023-04-23T03:21:44;100291.00;;;11.10
5571;BMP180;2808;51.240;6.794;2023-04-23T03:24:14;100283.00;;;11.10
5571;BMP180;2808;51.240;6.794;2023-04-23T03:26:42;100285.00;;;11.20
5571;BMP180;2808;51.240;6.794;2023-04-23T03:29:09;100276.00;;;11.10
5571;BMP180;2808;51.240;6.794;2023-04-23T03:31:37;100277.00;;;11.10
5571;BMP180;2808;51.240;6.794;2023-04-23T03:34:04;100273.00;;;11.10
5571;BMP180;2808;51.240;6.794;2023-04-23T03:36:31;100274.00;;;11.10
5571;BMP180;2808;51.240;6.794;2023-04-23T03:38:59;100269.00;;;11.10
5571;BMP180;2808;51.240;6.794;2023-04-23T03:41:28;100288.00;;;11.00
5571;BMP180;2808;51.240;6.794;2023-04-23T03:43:56;100281.00;;;11.00
5571;BMP180;2808;51.240;6.794;2023-04-23T03:46:23;100280.00;;;10.90
5571;BMP180;2808;51.240;6.794;2023-04-23T03:48:50;100273.00;;;10.80
5571;BMP180;2808;51.240;6.794;2023-04-23T03:51:18;100267.00;;;10.80
5571;BMP180;2808;51.240;6.794;2023-04-23T03:53:45;100276.00;;;10.80
5571;BMP180;2808;51.240;6.794;2023-04-23T03:56:13;100274.00;;;10.70
5571;BMP180;2808;51.240;6.794;2023-04-23T03:58:42;100274.00;;;10.70
5571;BMP180;2808;51.240;6.794;2023-04-23T04:01:09;100271.00;;;10.70
5571;BMP180;2808;51.240;6.794;2023-04-23T04:03:37;100275.00;;;10.70
5571;BMP180;2808;51.240;6.794;2023-04-23T04:06:04;100271.00;;;10.60
5571;BMP180;2808;51.240;6.794;2023-04-23T04:08:36;100273.00;;;10.50
5571;BMP180;2808;51.240;6.794;2023-04-23T04:11:03;100274.00;;;10.50
5571;BMP180;2808;51.240;6.794;2023-04-23T04:13:31;100271.00;;;10.50
5571;BMP180;2808;51.240;6.794;2023-04-23T04:15:59;100274.00;;;10.50
5571;BMP180;2808;51.240;6.794;2023-04-23T04:18:27;100266.00;;;10.50
5571;BMP180;2808;51.240;6.794;2023-04-23T04:20:55;100266.00;;;10.50
5571;BMP180;2808;51.240;6.794;2023-04-23T04:23:22;100277.00;;;10.50
5571;BMP180;2808;51.240;6.794;2023-04-23T04:25:49;100269.00;;;10.50
5571;BMP180;2808;51.240;6.794;2023-04-23T04:28:19;100270.00;;;10.50
5571;BMP180;2808;51.240;6.794;2023-04-23T04:30:47;100270.00;;;10.60
5571;BMP180;2808;51.240;6.794;2023-04-23T04:33:16;100263.00;;;10.70
5571;BMP180;2808;51.240;6.794;2023-04-23T04:35:44;100263.00;;;10.70
5571;BMP180;2808;51.240;6.794;2023-04-23T04:38:11;100258.00;;;10.70
5571;BMP180;2808;51.240;6.794;2023-04-23T04:40:39;100262.00;;;10.80
5571;BMP180;2808;51.240;6.794;2023-04-23T04:43:07;100266.00;;;10.80
5571;BMP180;2808;51.240;6.794;2023-04-23T04:45:35;100268.00;;;10.80
5571;BMP180;2808;51.240;6.794;2023-04-23T04:48:02;100272.00;;;10.90
5571;BMP180;2808;51.240;6.794;2023-04-23T04:50:31;100275.00;;;11.00
5571;BMP180;2808;51.240;6.794;2023-04-23T04:52:58;100287.00;;;11.10
5571;BMP180;2808;51.240;6.794;2023-04-23T04:55:26;100286.00;;;11.30
5571;BMP180;2808;51.240;6.794;2023-04-23T04:57:53;100283.00;;;11.50
5571;BMP180;2808;51.240;6.794;2023-04-23T05:00:23;100288.00;;;11.70
5571;BMP180;2808;51.240;6.794;2023-04-23T05:02:53;100282.00;;;11.90
5571;BMP180;2808;51.240;6.794;2023-04-23T05:05:22;100288.00;;;12.10
5571;BMP180;2808;51.240;6.794;2023-04-23T05:07:51;100275.00;;;12.10
5571;BMP180;2808;51.240;6.794;2023-04-23T05:10:20;100283.00;;;12.00
5571;BMP180;2808;51.240;6.794;2023-04-23T05:12:47;100290.00;;;12.00
5571;BMP180;2808;51.240;6.794;2023-04-23T05:15:16;100282.00;;;11.90
5571;BMP180;2808;51.240;6.794;2023-04-23T05:17:44;100279.00;;;11.80
5571;BMP180;2808;51.240;6.794;2023-04-23T05:20:11;100274.00;;;11.80
5571;BMP180;2808;51.240;6.794;2023-04-23T05:22:40;100278.00;;;11.80
5571;BMP180;2808;51.240;6.794;2023-04-23T05:25:10;100272.00;;;11.80
5571;BMP180;2808;51.240;6.794;2023-04-23T05:27:38;100274.00;;;11.80
5571;BMP180;2808;51.240;6.794;2023-04-23T05:30:07;100269.00;;;11.90
5571;BMP180;2808;51.240;6.794;2023-04-23T05:32:36;100274.00;;;11.90
5571;BMP180;2808;51.240;6.794;2023-04-23T05:35:04;100265.00;;;11.90
5571;BMP180;2808;51.240;6.794;2023-04-23T05:37:32;100264.00;;;11.90
5571;BMP180;2808;51.240;6.794;2023-04-23T05:39:59;100275.00;;;11.80
5571;BMP180;2808;51.240;6.794;2023-04-23T05:42:29;100273.00;;;11.80
5571;BMP180;2808;51.240;6.794;2023-04-23T05:44:56;100267.00;;;11.80
5571;BMP180;2808;51.240;6.794;2023-04-23T05:47:23;100275.00;;;11.80
5571;BMP180;2808;51.240;6.794;2023-04-23T05:49:51;100271.00;;;11.80
5571;BMP180;2808;51.240;6.794;2023-04-23T05:52:18;100277.00;;;11.80
5571;BMP180;2808;51.240;6.794;2023-04-23T05:54:46;100276.00;;;11.80
5571;BMP180;2808;51.240;6.794;2023-04-23T05:57:13;100279.00;;;11.90
5571;BMP180;2808;51.240;6.794;2023-04-23T05:59:42;100276.00;;;11.90
5571;BMP180;2808;51.240;6.794;2023-04-23T06:02:10;100273.00;;;11.90
5571;BMP180;2808;51.240;6.794;2023-04-23T06:04:38;100274.00;;;11.90
5571;BMP180;2808;51.240;6.794;2023-04-23T06:07:06;100279.00;;;12.00
5571;BMP180;2808;51.240;6.794;2023-04-23T06:09:33;100279.00;;;12.00
5571;BMP180;2808;51.240;6.794;2023-04-23T06:12:01;100273.00;;;12.10
5571;BMP180;2808;51.240;6.794;2023-04-23T06:14:29;100260.00;;;12.20
5571;BMP180;2808;51.240;6.794;2023-04-23T06:16:58;100270.00;;;12.30
5571;BMP180;2808;51.240;6.794;2023-04-23T06:19:28;100271.00;;;12.30
5571;BMP180;2808;51.240;6.794;2023-04-23T06:21:57;100273.00;;;12.50
5571;BMP180;2808;51.240;6.794;2023-04-23T06:24:25;100266.00;;;12.60
5571;BMP180;2808;51.240;6.794;2023-04-23T06:26:53;100268.00;;;12.60
5571;BMP180;2808;51.240;6.794;2023-04-23T06:29:23;100267.00;;;12.80
5571;BMP180;2808;51.240;6.794;2023-04-23T06:31:53;100266.00;;;12.90
5571;BMP180;2808;51.240;6.794;2023-04-23T06:34:22;100271.00;;;13.10
5571;BMP180;2808;51.240;6.794;2023-04-23T06:36:50;100270.00;;;13.30
5571;BMP180;2808;51.240;6.794;2023-04-23T06:39:17;100260.00;;;13.40
5571;BMP180;2808;51.240;6.794;2023-04-23T06:41:46;100269.00;;;13.60
5571;BMP180;2808;51.240;6.794;2023-04-23T06:44:13;100264.00;;;13.90
5571;BMP180;2808;51.240;6.794;2023-04-23T06:46:41;100261.00;;;14.00
5571;BMP180;2808;51.240;6.794;2023-04-23T06:49:08;100264.00;;;14.20
5571;BMP180;2808;51.240;6.794;2023-04-23T06:51:37;100257.00;;;14.40
5571;BMP180;2808;51.240;6.794;2023-04-23T06:54:04;100255.00;;;14.50
5571;BMP180;2808;51.240;6.794;2023-04-23T06:56:32;100255.00;;;14.50
5571;BMP180;2808;51.240;6.794;2023-04-23T06:58:59;100251.00;;;14.60
5571;BMP180;2808;51.240;6.794;2023-04-23T07:01:27;100250.00;;;14.70
5571;BMP180;2808;51.240;6.794;2023-04-23T07:03:54;100251.00;;;14.70
5571;BMP180;2808;51.240;6.794;2023-04-23T07:06:22;100247.00;;;14.70
5571;BMP180;2808;51.240;6.794;2023-04-23T07:08:50;100238.00;;;14.70
5571;BMP180;2808;51.240;6.794;2023-04-23T07:11:18;100244.00;;;14.90
5571;BMP180;2808;51.240;6.794;2023-04-23T07:13:45;100230.00;;;15.10
5571;BMP180;2808;51.240;6.794;2023-04-23T07:16:13;100227.00;;;15.30
5571;BMP180;2808;51.240;6.794;2023-04-23T07:18:40;100226.00;;;15.50
5571;BMP180;2808;51.240;6.794;2023-04-23T07:21:07;100229.00;;;15.70
5571;BMP180;2808;51.240;6.794;2023-04-23T07:23:35;100221.00;;;15.80
5571;BMP180;2808;51.240;6.794;2023-04-23T07:26:04;100227.00;;;16.00
5571;BMP180;2808;51.240;6.794;2023-04-23T07:28:31;100220.00;;;16.00
5571;BMP180;2808;51.240;6.794;2023-04-23T07:30:59;100228.00;;;16.00
5571;BMP180;2808;51.240;6.794;2023-04-23T07:33:26;100227.00;;;15.90
5571;BMP180;2808;51.240;6.794;2023-04-23T07:35:54;100228.00;;;15.80
5571;BMP180;2808;51.240;6.794;2023-04-23T07:38:21;100226.00;;;15.90
5571;BMP180;2808;51.240;6.794;2023-04-23T07:40:52;100221.00;;;16.10
5571;BMP180;2808;51.240;6.794;2023-04-23T07:43:20;100228.00;;;16.00
5571;BMP180;2808;51.240;6.794;2023-04-23T07:45:48;100228.00;;;15.80
5571;BMP180;2808;51.240;6.794;2023-04-23T07:48:15;100219.00;;;16.10
5571;BMP180;2808;51.240;6.794;2023-04-23T07:50:43;100217.00;;;16.40
5571;BMP180;2808;51.240;6.794;2023-04-23T07:53:10;100213.00;;;16.60
5571;BMP180;2808;51.240;6.794;2023-04-23T07:55:37;100207.00;;;16.50
5571;BMP180;2808;51.240;6.794;2023-04-23T07:58:05;100208.00;;;16.60
5571;BMP180;2808;51.240;6.794;2023-04-23T08:00:34;100201.00;;;17.10
5571;BMP180;2808;51.240;6.794;2023-04-23T08:03:02;100207.00;;;17.20
5571;BMP180;2808;51.240;6.794;2023-04-23T08:05:29;100201.00;;;17.40
5571;BMP180;2808;51.240;6.794;2023-04-23T08:07:57;100200.00;;;17.70
5571;BMP180;2808;51.240;6.794;2023-04-23T08:10:24;100196.00;;;18.10
5571;BMP180;2808;51.240;6.794;2023-04-23T08:12:52;100194.00;;;18.30
5571;BMP180;2808;51.240;6.794;2023-04-23T08:15:19;100193.00;;;18.20
5571;BMP180;2808;51.240;6.794;2023-04-23T08:17:48;100188.00;;;18.20
5571;BMP180;2808;51.240;6.794;2023-04-23T08:20:16;100185.00;;;18.20
5571;BMP180;2808;51.240;6.794;2023-04-23T08:22:44;100185.00;;;18.10
5571;BMP180;2808;51.240;6.794;2023-04-23T08:25:12;100187.00;;;18.30
5571;BMP180;2808;51.240;6.794;2023-04-23T08:27:39;100184.00;;;18.30
5571;BMP180;2808;51.240;6.794;2023-04-23T08:30:07;100192.00;;;18.30
5571;BMP180;2808;51.240;6.794;2023-04-23T08:32:35;100189.00;;;18.50
5571;BMP180;2808;51.240;6.794;2023-04-23T08:35:05;100182.00;;;18.70
5571;BMP180;2808;51.240;6.794;2023-04-23T08:37:36;100192.00;;;18.70
5571;BMP180;2808;51.240;6.794;2023-04-23T08:40:06;100194.00;;;18.70
5571;BMP180;2808;51.240;6.794;2023-04-23T08:42:40;100186.00;;;19.00
5571;BMP180;2808;51.240;6.794;2023-04-23T08:45:09;100185.00;;;18.90
5571;BMP180;2808;51.240;6.794;2023-04-23T08:47:39;100193.00;;;19.10
5571;BMP180;2808;51.240;6.794;2023-04-23T08:50:14;100177.00;;;19.00
5571;BMP180;2808;51.240;6.794;2023-04-23T08:55:26;100190.00;;;19.00
5571;BMP180;2808;51.240;6.794;2023-04-23T08:58:01;100194.00;;;19.00
5571;BMP180;2808;51.240;6.794;2023-04-23T09:00:31;100196.00;;;19.20
5571;BMP180;2808;51.240;6.794;2023-04-23T09:03:00;100181.00;;;19.20
5571;BMP180;2808;51.240;6.794;2023-04-23T09:05:30;100179.00;;;18.90
5571;BMP180;2808;51.240;6.794;2023-04-23T09:07:57;100179.00;;;18.90
5571;BMP180;2808;51.240;6.794;2023-04-23T09:10:25;100174.00;;;19.00
5571;BMP180;2808;51.240;6.794;2023-04-23T09:12:53;100168.00;;;19.20
5571;BMP180;2808;51.240;6.794;2023-04-23T09:15:20;100173.00;;;19.40
5571;BMP180;2808;51.240;6.794;2023-04-23T09:17:48;100165.00;;;19.30
5571;BMP180;2808;51.240;6.794;2023-04-23T09:20:16;100174.00;;;19.10
5571;BMP180;2808;51.240;6.794;2023-04-23T09:22:48;100168.00;;;18.90
5571;BMP180;2808;51.240;6.794;2023-04-23T09:25:17;100168.00;;;18.80
5571;BMP180;2808;51.240;6.794;2023-04-23T09:27:46;100165.00;;;18.70
5571;BMP180;2808;51.240;6.794;2023-04-23T09:30:14;100159.00;;;18.80
5571;BMP180;2808;51.240;6.794;2023-04-23T09:32:43;100170.00;;;18.70
5571;BMP180;2808;51.240;6.794;2023-04-23T09:35:13;100159.00;;;18.60
5571;BMP180;2808;51.240;6.794;2023-04-23T09:37:43;100160.00;;;18.80
5571;BMP180;2808;51.240;6.794;2023-04-23T09:40:15;100165.00;;;18.90
5571;BMP180;2808;51.240;6.794;2023-04-23T09:42:47;100150.00;;;18.70
5571;BMP180;2808;51.240;6.794;2023-04-23T09:45:17;100158.00;;;18.70
5571;BMP180;2808;51.240;6.794;2023-04-23T09:47:52;100154.00;;;18.80
5571;BMP180;2808;51.240;6.794;2023-04-23T09:50:21;100149.00;;;19.00
5571;BMP180;2808;51.240;6.794;2023-04-23T09:52:57;100151.00;;;18.90
5571;BMP180;2808;51.240;6.794;2023-04-23T09:55:30;100147.00;;;18.80
5571;BMP180;2808;51.240;6.794;2023-04-23T09:58:01;100151.00;;;18.80
5571;BMP180;2808;51.240;6.794;2023-04-23T10:00:33;100146.00;;;18.80
5571;BMP180;2808;51.240;6.794;2023-04-23T10:03:00;100136.00;;;18.70
5571;BMP180;2808;51.240;6.794;2023-04-23T10:05:28;100145.00;;;18.70
5571;BMP180;2808;51.240;6.794;2023-04-23T10:07:56;100135.00;;;18.70
5571;BMP180;2808;51.240;6.794;2023-04-23T10:10:24;100127.00;;;18.50
5571;BMP180;2808;51.240;6.794;2023-04-23T10:12:53;100121.00;;;18.40
5571;BMP180;2808;51.240;6.794;2023-04-23T10:15:23;100120.00;;;18.20
5571;BMP180;2808;51.240;6.794;2023-04-23T10:17:51;100119.00;;;18.10
5571;BMP180;2808;51.240;6.794;2023-04-23T10:20:21;100126.00;;;18.10
5571;BMP180;2808;51.240;6.794;2023-04-23T10:22:49;100130.00;;;17.90
5571;BMP180;2808;51.240;6.794;2023-04-23T10:25:19;100140.00;;;17.80
5571;BMP180;2808;51.240;6.794;2023-04-23T10:27:48;100126.00;;;17.60
5571;BMP180;2808;51.240;6.794;2023-04-23T10:30:20;100127.00;;;17.40
5571;BMP180;2808;51.240;6.794;2023-04-23T10:32:48;100118.00;;;17.10
5571;BMP180;2808;51.240;6.794;2023-04-23T10:35:16;100117.00;;;17.00
5571;BMP180;2808;51.240;6.794;2023-04-23T10:37:46;100122.00;;;17.00
5571;BMP180;2808;51.240;6.794;2023-04-23T10:40:17;100130.00;;;16.80
5571;BMP180;2808;51.240;6.794;2023-04-23T10:42:47;100128.00;;;16.60
5571;BMP180;2808;51.240;6.794;2023-04-23T10:45:16;100122.00;;;16.60
5571;BMP180;2808;51.240;6.794;2023-04-23T10:47:47;100111.00;;;16.50
5571;BMP180;2808;51.240;6.794;2023-04-23T10:50:19;100104.00;;;16.70
5571;BMP180;2808;51.240;6.794;2023-04-23T10:52:47;100109.00;;;16.90
5571;BMP180;2808;51.240;6.794;2023-04-23T10:55:19;100106.00;;;16.80
5571;BMP180;2808;51.240;6.794;2023-04-23T10:57:58;100111.00;;;16.80
5571;BMP180;2808;51.240;6.794;2023-04-23T11:00:26;100119.00;;;16.70
5571;BMP180;2808;51.240;6.794;2023-04-23T11:02:55;100115.00;;;16.60
5571;BMP180;2808;51.240;6.794;2023-04-23T11:05:23;100111.00;;;16.40
5571;BMP180;2808;51.240;6.794;2023-04-23T11:08:04;100099.00;;;16.30
5571;BMP180;2808;51.240;6.794;2023-04-23T11:10:47;100101.00;;;16.40
5571;BMP180;2808;51.240;6.794;2023-04-23T11:13:23;100093.00;;;16.50
5571;BMP180;2808;51.240;6.794;2023-04-23T11:16:12;100089.00;;;16.90
5571;BMP180;2808;51.240;6.794;2023-04-23T11:19:01;100084.00;;;17.30
5571;BMP180;2808;51.240;6.794;2023-04-23T11:21:55;100078.00;;;17.90
5571;BMP180;2808;51.240;6.794;2023-04-23T11:24:22;100069.00;;;18.30
5571;BMP180;2808;51.240;6.794;2023-04-23T11:26:51;100061.00;;;18.50
5571;BMP180;2808;51.240;6.794;2023-04-23T11:29:21;100060.00;;;18.40
5571;BMP180;2808;51.240;6.794;2023-04-23T11:31:50;100052.00;;;18.40
5571;BMP180;2808;51.240;6.794;2023-04-23T11:34:19;100047.00;;;18.50
5571;BMP180;2808;51.240;6.794;2023-04-23T11:36:50;100046.00;;;18.40
5571;BMP180;2808;51.240;6.794;2023-04-23T11:39:17;100042.00;;;18.50
5571;BMP180;2808;51.240;6.794;2023-04-23T11:41:45;100038.00;;;18.60
5571;BMP180;2808;51.240;6.794;2023-04-23T11:44:13;100037.00;;;18.60
5571;BMP180;2808;51.240;6.794;2023-04-23T11:46:41;100032.00;;;18.50
5571;BMP180;2808;51.240;6.794;2023-04-23T11:49:09;100021.00;;;18.50
5571;BMP180;2808;51.240;6.794;2023-04-23T11:51:57;100030.00;;;18.40
5571;BMP180;2808;51.240;6.794;2023-04-23T11:54:26;100020.00;;;18.40
5571;BMP180;2808;51.240;6.794;2023-04-23T11:56:55;100027.00;;;18.50
5571;BMP180;2808;51.240;6.794;2023-04-23T11:59:23;100020.00;;;18.60
5571;BMP180;2808;51.240;6.794;2023-04-23T12:01:52;100010.00;;;18.50
5571;BMP180;2808;51.240;6.794;2023-04-23T12:04:22;100010.00;;;18.50
5571;BMP180;2808;51.240;6.794;2023-04-23T12:06:52;100007.00;;;18.40
5571;BMP180;2808;51.240;6.794;2023-04-23T12:09:21;99993.00;;;18.40
5571;BMP180;2808;51.240;6.794;2023-04-23T12:11:49;99993.00;;;18.40
5571;BMP180;2808;51.240;6.794;2023-04-23T12:14:19;99988.00;;;18.40
5571;BMP180;2808;51.240;6.794;2023-04-23T12:16:49;99979.00;;;18.40
5571;BMP180;2808;51.240;6.794;2023-04-23T12:19:18;99983.00;;;18.60
5571;BMP180;2808;51.240;6.794;2023-04-23T12:21:56;99976.00;;;18.60
5571;BMP180;2808;51.240;6.794;2023-04-23T12:24:26;99975.00;;;18.60
5571;BMP180;2808;51.240;6.794;2023-04-23T12:26:56;99972.00;;;18.80
5571;BMP180;2808;51.240;6.794;2023-04-23T12:29:28;99972.00;;;19.00
5571;BMP180;2808;51.240;6.794;2023-04-23T12:31:58;99962.00;;;19.30
5571;BMP180;2808;51.240;6.794;2023-04-23T12:34:25;99968.00;;;19.30
5571;BMP180;2808;51.240;6.794;2023-04-23T12:36:55;99964.00;;;19.10
5571;BMP180;2808;51.240;6.794;2023-04-23T12:39:26;99969.00;;;19.10
5571;BMP180;2808;51.240;6.794;2023-04-23T12:41:57;99960.00;;;19.10
5571;BMP180;2808;51.240;6.794;2023-04-23T12:44:27;99952.00;;;19.20
5571;BMP180;2808;51.240;6.794;2023-04-23T12:46:56;99950.00;;;19.00
5571;BMP180;2808;51.240;6.794;2023-04-23T12:49:24;99956.00;;;18.70
5571;BMP180;2808;51.240;6.794;2023-04-23T12:51:53;99967.00;;;18.50
5571;BMP180;2808;51.240;6.794;2023-04-23T12:54:23;99968.00;;;18.50
5571;BMP180;2808;51.240;6.794;2023-04-23T12:56:53;99955.00;;;18.50
5571;BMP180;2808;51.240;6.794;2023-04-23T12:59:21;99954.00;;;18.40
5571;BMP180;2808;51.240;6.794;2023-04-23T13:01:48;99944.00;;;18.20
5571;BMP180;2808;51.240;6.794;2023-04-23T13:04:17;99940.00;;;18.10
5571;BMP180;2808;51.240;6.794;2023-04-23T13:06:45;99935.00;;;18.10
5571;BMP180;2808;51.240;6.794;2023-04-23T13:09:12;99935.00;;;18.10
5571;BMP180;2808;51.240;6.794;2023-04-23T13:11:40;99925.00;;;18.20
5571;BMP180;2808;51.240;6.794;2023-04-23T13:14:12;99927.00;;;18.20
5571;BMP180;2808;51.240;6.794;2023-04-23T13:16:40;99926.00;;;18.30
5571;BMP180;2808;51.240;6.794;2023-04-23T13:19:09;99920.00;;;18.40
5571;BMP180;2808;51.240;6.794;2023-04-23T13:22:15;99920.00;;;18.50
5571;BMP180;2808;51.240;6.794;2023-04-23T13:24:45;99910.00;;;18.50
5571;BMP180;2808;51.240;6.794;2023-04-23T13:27:12;99910.00;;;18.50
5571;BMP180;2808;51.240;6.794;2023-04-23T13:29:41;99904.00;;;18.40
5571;BMP180;2808;51.240;6.794;2023-04-23T13:32:09;99905.00;;;18.40
5571;BMP180;2808;51.240;6.794;2023-04-23T13:34:36;99894.00;;;18.40
5571;BMP180;2808;51.240;6.794;2023-04-23T13:37:04;99892.00;;;18.50
5571;BMP180;2808;51.240;6.794;2023-04-23T13:39:34;99890.00;;;18.60
5571;BMP180;2808;51.240;6.794;2023-04-23T13:42:01;99893.00;;;18.70
5571;BMP180;2808;51.240;6.794;2023-04-23T13:44:29;99883.00;;;18.80
5571;BMP180;2808;51.240;6.794;2023-04-23T13:46:58;99892.00;;;18.80
5571;BMP180;2808;51.240;6.794;2023-04-23T13:49:26;99882.00;;;18.80
5571;BMP180;2808;51.240;6.794;2023-04-23T13:51:54;99876.00;;;18.80
5571;BMP180;2808;51.240;6.794;2023-04-23T13:54:25;99874.00;;;18.80
5571;BMP180;2808;51.240;6.794;2023-04-23T13:56:53;99877.00;;;18.80
5571;BMP180;2808;51.240;6.794;2023-04-23T13:59:20;99864.00;;;18.90
5571;BMP180;2808;51.240;6.794;2023-04-23T14:01:48;99864.00;;;18.90
5571;BMP180;2808;51.240;6.794;2023-04-23T14:04:17;99854.00;;;18.90
5571;BMP180;2808;51.240;6.794;2023-04-23T14:06:45;99860.00;;;18.80
5571;BMP180;2808;51.240;6.794;2023-04-23T14:09:12;99855.00;;;18.80
5571;BMP180;2808;51.240;6.794;2023-04-23T14:11:40;99841.00;;;18.70
5571;BMP180;2808;51.240;6.794;2023-04-23T14:14:07;99844.00;;;18.60
5571;BMP180;2808;51.240;6.794;2023-04-23T14:16:35;99834.00;;;18.60
5571;BMP180;2808;51.240;6.794;2023-04-23T14:19:02;99832.00;;;18.70
5571;BMP180;2808;51.240;6.794;2023-04-23T14:21:31;99830.00;;;18.60
5571;BMP180;2808;51.240;6.794;2023-04-23T14:24:07;99824.00;;;18.60
5571;BMP180;2808;51.240;6.794;2023-04-23T14:26:35;99809.00;;;18.80
5571;BMP180;2808;51.240;6.794;2023-04-23T14:29:17;99806.00;;;18.70
5571;BMP180;2808;51.240;6.794;2023-04-23T14:31:45;99812.00;;;18.80
5571;BMP180;2808;51.240;6.794;2023-04-23T14:34:12;99798.00;;;18.70
5571;BMP180;2808;51.240;6.794;2023-04-23T14:36:41;99785.00;;;18.60